createdAt,value
2023-02-06T00:00:53.165Z,24.42
2023-02-06T00:03:20.482Z,25.50
2023-02-06T00:05:58.409Z,29.15
2023-02-06T00:08:26.423Z,25.77
2023-02-06T00:10:53.295Z,32.72
2023-02-06T00:13:20.244Z,33.22
2023-02-06T00:15:47.098Z,33.30
2023-02-06T00:18:13.806Z,34.33
2023-02-06T00:20:40.414Z,36.17
2023-02-06T00:23:07.095Z,33.72
2023-02-06T00:25:33.998Z,28.83
2023-02-06T00:28:00.741Z,28.60
2023-02-06T00:30:27.455Z,29.73
2023-02-06T00:32:54.117Z,30.20
2023-02-06T00:35:20.902Z,26.90
2023-02-06T00:37:47.576Z,25.50
2023-02-06T00:40:14.196Z,27.48
2023-02-06T00:42:40.856Z,31.23
2023-02-06T00:45:08.337Z,28.65
2023-02-06T00:47:35.619Z,31.35
2023-02-06T00:50:03.084Z,36.00
2023-02-06T00:52:29.650Z,32.85
2023-02-06T00:54:56.853Z,28.65
2023-02-06T00:57:23.537Z,30.80
2023-02-06T00:59:50.228Z,25.25
2023-02-06T01:02:16.828Z,27.45
2023-02-06T01:04:43.426Z,29.20
2023-02-06T01:07:10.014Z,28.70
2023-02-06T01:09:36.735Z,31.95
2023-02-06T01:12:03.474Z,27.17
2023-02-06T01:14:30.167Z,27.27
2023-02-06T01:16:56.868Z,26.52
2023-02-06T01:19:23.501Z,24.55
2023-02-06T01:21:50.122Z,26.05
2023-02-06T01:24:16.758Z,25.48
2023-02-06T01:26:43.581Z,28.55
2023-02-06T01:29:10.241Z,27.63
2023-02-06T01:31:36.908Z,28.35
2023-02-06T01:34:03.737Z,29.42
2023-02-06T01:36:30.366Z,25.95
2023-02-06T01:38:57.042Z,23.92
2023-02-06T01:41:24.120Z,22.13
2023-02-06T01:44:12.583Z,22.83
2023-02-06T01:46:41.428Z,24.50
2023-02-06T01:49:13.766Z,31.70
2023-02-06T01:51:40.970Z,27.65
2023-02-06T01:54:09.299Z,28.08
2023-02-06T01:56:47.116Z,24.80
2023-02-06T01:59:14.069Z,27.17
2023-02-06T02:01:41.847Z,25.40
2023-02-06T02:04:14.911Z,28.55
2023-02-06T02:06:41.933Z,24.05
2023-02-06T02:09:09.310Z,23.63
2023-02-06T02:11:38.383Z,26.00
2023-02-06T02:14:08.127Z,24.25
2023-02-06T02:16:37.515Z,25.30
2023-02-06T02:22:10.422Z,31.13
2023-02-06T02:25:07.782Z,31.40
2023-02-06T02:27:44.513Z,28.30
2023-02-06T02:30:29.818Z,31.23
2023-02-06T02:33:02.448Z,32.10
2023-02-06T02:35:32.295Z,28.30
2023-02-06T02:38:13.247Z,29.73
2023-02-06T02:41:18.366Z,25.85
2023-02-06T02:43:58.245Z,26.20
2023-02-06T02:46:42.839Z,26.75
2023-02-06T02:49:13.958Z,29.88
2023-02-06T02:51:42.088Z,28.80
2023-02-06T02:54:09.528Z,27.85
2023-02-06T02:56:36.576Z,25.65
2023-02-06T02:59:12.087Z,27.83
2023-02-06T03:01:48.560Z,29.50
2023-02-06T03:04:27.599Z,28.60
2023-02-06T03:07:26.518Z,31.10
2023-02-06T03:10:04.948Z,27.38
2023-02-06T03:12:46.746Z,26.77
2023-02-06T03:15:26.651Z,25.02
2023-02-06T03:18:16.597Z,25.77
2023-02-06T03:20:48.055Z,37.22
2023-02-06T03:23:25.628Z,30.15
2023-02-06T03:25:56.412Z,41.67
2023-02-06T03:28:31.741Z,34.78
2023-02-06T03:31:00.986Z,37.50
2023-02-06T03:33:34.262Z,29.20
2023-02-06T03:36:01.246Z,36.33
2023-02-06T03:38:28.306Z,35.17
2023-02-06T03:40:58.024Z,28.60
2023-02-06T03:43:27.356Z,27.90
2023-02-06T03:48:37.956Z,31.77
2023-02-06T03:51:11.676Z,33.60
2023-02-06T03:53:39.572Z,41.10
2023-02-06T03:56:15.817Z,32.17
2023-02-06T03:58:42.449Z,34.85
2023-02-06T04:01:10.999Z,28.02
2023-02-06T04:03:37.659Z,25.73
2023-02-06T04:06:04.314Z,30.77
2023-02-06T04:08:30.943Z,31.33
2023-02-06T04:10:57.616Z,43.28
2023-02-06T04:13:24.265Z,31.52
2023-02-06T04:15:50.948Z,33.83
2023-02-06T04:18:17.607Z,32.80
2023-02-06T04:20:44.221Z,30.15
2023-02-06T04:23:10.804Z,33.55
2023-02-06T04:25:37.663Z,36.35
2023-02-06T04:28:04.743Z,32.65
2023-02-06T04:30:31.378Z,31.52
2023-02-06T04:32:58.003Z,37.50
2023-02-06T04:35:24.647Z,35.72
2023-02-06T04:37:51.402Z,30.35
2023-02-06T04:40:18.259Z,29.83
2023-02-06T04:42:44.968Z,38.40
2023-02-06T04:45:11.680Z,32.67
2023-02-06T04:47:38.722Z,30.83
2023-02-06T04:50:06.059Z,28.05
2023-02-06T04:52:32.726Z,33.28
2023-02-06T04:54:59.304Z,32.20
2023-02-06T04:57:26.869Z,34.20
2023-02-06T04:59:53.579Z,34.22
2023-02-06T05:02:20.196Z,32.20
2023-02-06T05:04:46.799Z,35.17
2023-02-06T05:07:13.386Z,35.25
2023-02-06T05:09:40.113Z,33.45
2023-02-06T05:12:06.800Z,30.92
2023-02-06T05:14:33.407Z,35.40
2023-02-06T05:17:00.016Z,32.80
2023-02-06T05:19:26.700Z,35.05
2023-02-06T05:21:53.336Z,34.15
2023-02-06T05:24:19.983Z,34.80
2023-02-06T05:26:46.778Z,35.58
2023-02-06T05:29:13.472Z,36.30
2023-02-06T05:31:40.444Z,32.25
2023-02-06T05:34:07.139Z,34.78
2023-02-06T05:36:33.791Z,34.70
2023-02-06T05:39:00.388Z,37.63
2023-02-06T05:41:27.087Z,29.25
2023-02-06T05:43:53.725Z,29.17
2023-02-06T05:46:20.366Z,30.98
2023-02-06T05:48:47.054Z,32.88
2023-02-06T05:51:13.715Z,36.08
2023-02-06T05:53:40.371Z,37.63
2023-02-06T05:56:07.253Z,30.35
2023-02-06T05:58:34.220Z,30.45
2023-02-06T06:01:00.885Z,25.20
2023-02-06T06:03:27.616Z,32.05
2023-02-06T06:05:54.393Z,23.95
2023-02-06T06:08:21.707Z,31.77
2023-02-06T06:10:51.576Z,25.55
2023-02-06T06:13:19.006Z,34.75
2023-02-06T06:15:45.678Z,37.28
2023-02-06T06:18:12.364Z,24.10
2023-02-06T06:20:38.959Z,29.05
2023-02-06T06:23:05.614Z,26.83
2023-02-06T06:25:32.248Z,23.83
2023-02-06T06:27:58.874Z,27.20
2023-02-06T06:30:25.492Z,23.55
2023-02-06T06:32:52.599Z,27.42
2023-02-06T06:35:19.703Z,24.55
2023-02-06T06:37:46.314Z,27.80
2023-02-06T06:40:12.983Z,31.45
2023-02-06T06:42:39.776Z,30.48
2023-02-06T06:45:07.562Z,19.20
2023-02-06T06:47:34.219Z,23.17
2023-02-06T06:50:00.832Z,23.63
2023-02-06T06:52:27.451Z,22.38
2023-02-06T06:54:54.521Z,22.23
2023-02-06T06:57:22.523Z,28.67
2023-02-06T06:59:49.586Z,19.50
2023-02-06T07:02:16.903Z,27.60
2023-02-06T07:04:44.015Z,31.35
2023-02-06T07:07:10.714Z,26.85
2023-02-06T07:09:37.435Z,27.23
2023-02-06T07:12:04.429Z,22.25
2023-02-06T07:14:31.164Z,24.95
2023-02-06T07:16:59.269Z,19.35
2023-02-06T07:19:25.980Z,21.60
2023-02-06T07:21:52.612Z,21.65
2023-02-06T07:24:19.290Z,23.27
2023-02-06T07:26:45.943Z,23.33
2023-02-06T07:29:12.607Z,22.92
2023-02-06T07:31:39.238Z,23.40
2023-02-06T07:34:05.952Z,30.45
2023-02-06T07:36:32.655Z,24.70
2023-02-06T07:38:59.324Z,25.95
2023-02-06T07:41:25.971Z,25.13
2023-02-06T07:43:54.273Z,26.08
2023-02-06T07:46:21.167Z,19.48
2023-02-06T07:48:47.953Z,19.98
2023-02-06T07:51:14.571Z,16.38
2023-02-06T07:53:41.245Z,19.63
2023-02-06T07:56:16.870Z,20.05
2023-02-06T07:58:43.648Z,19.45
2023-02-06T08:01:10.823Z,23.25
2023-02-06T08:03:37.696Z,22.08
2023-02-06T08:06:09.376Z,19.95
2023-02-06T08:08:36.076Z,17.10
2023-02-06T08:11:07.164Z,15.80
2023-02-06T08:13:35.113Z,15.90
2023-02-06T08:16:11.502Z,17.88
2023-02-06T08:18:38.901Z,17.40
2023-02-06T08:21:07.742Z,16.77
2023-02-06T08:23:34.392Z,16.25
2023-02-06T08:26:15.964Z,13.23
2023-02-06T08:28:44.536Z,12.90
2023-02-06T08:31:38.608Z,11.70
2023-02-06T08:34:06.931Z,12.63
2023-02-06T08:36:34.051Z,12.63
2023-02-06T08:39:02.738Z,14.30
2023-02-06T08:41:32.795Z,12.57
2023-02-06T08:44:02.229Z,14.90
2023-02-06T08:48:58.571Z,11.55
2023-02-06T08:51:28.470Z,9.55
2023-02-06T08:53:59.879Z,10.50
2023-02-06T08:56:27.805Z,12.05
2023-02-06T08:58:54.972Z,11.35
2023-02-06T09:01:21.780Z,10.32
2023-02-06T09:03:48.849Z,14.55
2023-02-06T09:06:16.686Z,12.73
2023-02-06T09:08:44.657Z,10.25
2023-02-06T09:11:17.032Z,9.85
2023-02-06T09:13:49.248Z,14.07
2023-02-06T09:16:19.308Z,13.38
2023-02-06T09:18:46.244Z,10.63
2023-02-06T09:21:18.427Z,10.68
2023-02-06T09:23:50.209Z,10.82
2023-02-06T09:26:20.452Z,9.63
2023-02-06T09:28:47.506Z,12.32
2023-02-06T09:31:14.375Z,11.02
2023-02-06T09:33:41.058Z,9.10
2023-02-06T09:36:13.328Z,11.02
2023-02-06T09:38:43.218Z,8.50
2023-02-06T09:41:21.318Z,7.85
2023-02-06T09:43:54.640Z,10.88
2023-02-06T09:46:28.233Z,12.88
2023-02-06T09:48:57.390Z,10.18
2023-02-06T09:51:40.044Z,9.38
2023-02-06T09:54:23.220Z,12.38
2023-02-06T09:56:50.008Z,11.88
2023-02-06T09:59:28.696Z,10.75
2023-02-06T10:02:13.664Z,9.73
2023-02-06T10:04:58.587Z,11.50
2023-02-06T10:07:31.043Z,10.95
2023-02-06T10:10:47.531Z,10.63
2023-02-06T10:13:32.709Z,9.38
2023-02-06T10:16:32.513Z,10.65
2023-02-06T10:19:09.615Z,14.00
2023-02-06T10:21:42.625Z,8.45
2023-02-06T10:24:36.746Z,10.75
2023-02-06T10:27:09.052Z,12.15
2023-02-06T10:29:36.481Z,10.32
2023-02-06T10:32:40.360Z,11.50
2023-02-06T10:35:31.778Z,9.23
2023-02-06T10:38:16.528Z,9.65
2023-02-06T10:41:04.369Z,10.52
2023-02-06T10:43:44.025Z,9.95
2023-02-06T10:46:29.218Z,9.43
2023-02-06T10:49:05.475Z,10.90
2023-02-06T10:51:45.604Z,11.25
2023-02-06T10:54:18.434Z,8.35
2023-02-06T10:56:47.862Z,9.27
2023-02-06T11:01:44.128Z,9.38
2023-02-06T11:04:15.512Z,12.05
2023-02-06T11:06:43.223Z,10.20
2023-02-06T11:09:10.704Z,8.23
2023-02-06T11:11:40.486Z,9.48
2023-02-06T11:14:25.241Z,9.50
2023-02-06T11:16:52.732Z,9.48
2023-02-06T11:19:26.226Z,6.78
2023-02-06T11:22:17.271Z,7.53
2023-02-06T11:25:04.547Z,7.53
2023-02-06T11:27:33.672Z,7.88
2023-02-06T11:30:07.794Z,9.95
2023-02-06T11:32:36.761Z,9.27
2023-02-06T11:35:15.201Z,9.48
2023-02-06T11:37:42.146Z,10.13
2023-02-06T11:40:21.068Z,9.30
2023-02-06T11:42:49.872Z,8.85
2023-02-06T11:45:28.496Z,8.05
2023-02-06T11:47:55.294Z,9.98
2023-02-06T11:50:28.755Z,8.07
2023-02-06T11:53:09.291Z,8.95
2023-02-06T11:55:38.406Z,8.15
2023-02-06T12:00:41.765Z,10.43
2023-02-06T12:03:26.833Z,6.72
2023-02-06T12:05:55.499Z,8.45
2023-02-06T12:08:26.632Z,6.75
2023-02-06T12:11:00.186Z,7.18
2023-02-06T12:13:33.820Z,10.73
2023-02-06T12:16:04.095Z,7.95
2023-02-06T12:18:37.070Z,10.63
2023-02-06T12:21:08.528Z,7.80
2023-02-06T12:23:40.878Z,8.20
2023-02-06T12:26:12.077Z,10.13
2023-02-06T12:28:50.745Z,10.18
2023-02-06T12:31:26.040Z,11.73
2023-02-06T12:34:00.737Z,8.35
2023-02-06T12:37:10.430Z,8.43
2023-02-06T12:39:37.422Z,7.95
2023-02-06T12:42:12.563Z,11.88
2023-02-06T12:44:57.484Z,9.95
2023-02-06T12:47:27.458Z,13.05
2023-02-06T12:50:06.170Z,13.35
2023-02-06T12:52:48.258Z,11.90
2023-02-06T12:55:21.237Z,13.55
2023-02-06T12:57:47.988Z,10.40
2023-02-06T13:00:32.800Z,9.57
2023-02-06T13:03:26.084Z,13.18
2023-02-06T13:06:34.205Z,9.40
2023-02-06T13:09:02.270Z,12.63
2023-02-06T13:11:35.883Z,11.95
2023-02-06T13:14:19.519Z,13.38
2023-02-06T13:16:55.306Z,9.05
2023-02-06T13:19:39.172Z,11.38
2023-02-06T13:22:13.093Z,13.13
2023-02-06T13:24:50.251Z,12.88
2023-02-06T13:27:40.218Z,9.25
2023-02-06T13:30:31.567Z,14.50
2023-02-06T13:33:17.550Z,10.70
2023-02-06T13:35:56.386Z,14.60
2023-02-06T13:38:22.938Z,16.83
2023-02-06T13:41:13.123Z,17.35
2023-02-06T13:44:05.229Z,13.88
2023-02-06T13:46:37.918Z,17.83
2023-02-06T13:49:25.972Z,15.15
2023-02-06T13:52:18.770Z,14.70
2023-02-06T13:54:55.374Z,16.58
2023-02-06T13:57:43.709Z,13.27
2023-02-06T14:00:25.799Z,13.27
2023-02-06T14:03:06.130Z,9.15
2023-02-06T14:05:51.641Z,9.05
2023-02-06T14:08:38.337Z,9.52
2023-02-06T14:11:23.392Z,11.20
2023-02-06T14:14:14.650Z,8.95
2023-02-06T14:16:52.579Z,8.40
2023-02-06T14:19:28.886Z,7.13
2023-02-06T14:22:13.946Z,8.10
2023-02-06T14:25:17.585Z,5.25
2023-02-06T14:27:56.074Z,7.60
2023-02-06T14:30:50.468Z,6.90
2023-02-06T14:33:44.735Z,6.18
2023-02-06T14:36:11.274Z,6.15
2023-02-06T14:39:15.088Z,5.00
2023-02-06T14:41:42.254Z,5.53
2023-02-06T14:44:13.190Z,11.40
2023-02-06T14:46:42.136Z,7.63
2023-02-06T14:49:17.408Z,5.95
2023-02-06T14:51:49.669Z,5.60
2023-02-06T14:54:34.357Z,4.68
2023-02-06T14:57:05.600Z,6.25
2023-02-06T14:59:32.988Z,6.72
2023-02-06T15:02:11.384Z,6.68
2023-02-06T15:04:46.294Z,6.67
2023-02-06T15:07:24.130Z,4.88
2023-02-06T15:10:01.199Z,6.53
2023-02-06T15:12:29.222Z,8.27
2023-02-06T15:15:02.805Z,8.07
2023-02-06T15:17:31.180Z,6.30
2023-02-06T15:20:23.229Z,10.30
2023-02-06T15:22:51.093Z,9.70
2023-02-06T15:25:45.200Z,7.95
2023-02-06T15:28:18.982Z,9.15
2023-02-06T15:30:46.657Z,8.43
2023-02-06T15:33:24.127Z,6.47
2023-02-06T15:35:53.217Z,9.73
2023-02-06T15:38:22.009Z,6.82
2023-02-06T15:40:56.040Z,7.55
2023-02-06T15:43:25.470Z,7.00
2023-02-06T15:48:51.391Z,6.13
2023-02-06T15:51:29.594Z,5.35
2023-02-06T15:54:19.545Z,5.85
2023-02-06T15:57:05.825Z,6.35
2023-02-06T15:59:39.854Z,5.32
2023-02-06T16:02:08.053Z,8.40
2023-02-06T16:04:38.487Z,6.40
2023-02-06T16:07:23.659Z,8.40
2023-02-06T16:09:59.764Z,6.88
2023-02-06T16:12:26.495Z,6.80
2023-02-06T16:15:00.907Z,5.50
2023-02-06T16:17:33.993Z,5.45
2023-02-06T16:20:04.580Z,7.18
2023-02-06T16:22:38.325Z,6.97
2023-02-06T16:25:13.845Z,9.32
2023-02-06T16:27:45.853Z,6.13
2023-02-06T16:30:35.441Z,5.25
2023-02-06T16:33:26.969Z,5.45
2023-02-06T16:35:53.577Z,4.65
2023-02-06T16:38:20.207Z,5.28
2023-02-06T16:40:49.660Z,4.55
2023-02-06T16:43:16.311Z,5.63
2023-02-06T16:45:43.001Z,5.13
2023-02-06T16:48:14.319Z,6.38
2023-02-06T16:50:42.034Z,4.82
2023-02-06T16:53:20.253Z,3.88
2023-02-06T16:55:47.436Z,4.63
2023-02-06T16:58:19.178Z,6.30
2023-02-06T17:00:46.815Z,5.15
2023-02-06T17:03:16.309Z,4.25
2023-02-06T17:05:47.760Z,5.72
2023-02-06T17:08:20.580Z,4.32
2023-02-06T17:10:48.103Z,3.53
2023-02-06T17:13:17.184Z,3.25
2023-02-06T17:15:44.236Z,4.95
2023-02-06T17:18:14.029Z,5.30
2023-02-06T17:20:42.765Z,3.85
2023-02-06T17:23:12.761Z,4.53
2023-02-06T17:25:40.723Z,6.00
2023-02-06T17:28:09.264Z,4.68
2023-02-06T17:30:38.029Z,4.03
2023-02-06T17:33:06.354Z,3.83
2023-02-06T17:35:33.878Z,4.75
2023-02-06T17:38:00.505Z,5.45
2023-02-06T17:40:30.374Z,6.53
2023-02-06T17:42:59.016Z,4.43
2023-02-06T17:45:26.388Z,6.38
2023-02-06T17:47:53.482Z,4.60
2023-02-06T17:50:22.884Z,5.00
2023-02-06T17:52:52.689Z,4.40
2023-02-06T17:55:19.514Z,6.22
2023-02-06T17:57:46.085Z,5.03
2023-02-06T18:00:15.827Z,6.00
2023-02-06T18:02:42.855Z,4.70
2023-02-06T18:05:10.224Z,5.05
2023-02-06T18:07:40.287Z,4.28
2023-02-06T18:10:07.910Z,4.13
2023-02-06T18:12:34.719Z,4.03
2023-02-06T18:15:01.551Z,3.92
2023-02-06T18:17:28.152Z,3.63
2023-02-06T18:19:54.828Z,4.05
2023-02-06T18:22:22.248Z,4.63
2023-02-06T18:24:50.163Z,4.00
2023-02-06T18:27:17.942Z,5.10
2023-02-06T18:29:50.547Z,4.25
2023-02-06T18:32:18.570Z,5.13
2023-02-06T18:34:46.042Z,4.45
2023-02-06T18:37:12.763Z,4.82
2023-02-06T18:39:39.721Z,4.45
2023-02-06T18:42:25.237Z,3.60
2023-02-06T18:44:51.933Z,4.35
2023-02-06T18:47:19.783Z,4.10
2023-02-06T18:49:46.891Z,4.10
2023-02-06T18:52:14.422Z,3.58
2023-02-06T18:54:41.130Z,3.95
2023-02-06T18:57:08.367Z,4.60
2023-02-06T18:59:35.240Z,5.45
2023-02-06T19:02:02.921Z,4.68
2023-02-06T19:04:29.848Z,4.03
2023-02-06T19:06:56.542Z,4.90
2023-02-06T19:09:23.201Z,3.88
2023-02-06T19:11:49.798Z,2.95
2023-02-06T19:14:18.087Z,3.70
2023-02-06T19:16:47.472Z,3.78
2023-02-06T19:21:43.378Z,3.63
2023-02-06T19:24:15.183Z,4.70
2023-02-06T19:26:42.248Z,4.78
2023-02-06T19:29:09.677Z,3.85
2023-02-06T19:31:39.214Z,3.35
2023-02-06T19:34:06.662Z,4.15
2023-02-06T19:36:33.433Z,4.95
2023-02-06T19:39:03.037Z,3.70
2023-02-06T19:41:32.753Z,3.63
2023-02-06T19:44:04.743Z,3.33
2023-02-06T19:46:31.839Z,3.67
2023-02-06T19:48:58.622Z,3.53
2023-02-06T19:51:28.762Z,4.15
2023-02-06T19:53:56.970Z,4.10
2023-02-06T19:56:26.960Z,5.18
2023-02-06T19:59:04.865Z,7.18
2023-02-06T20:01:32.536Z,4.47
2023-02-06T20:04:00.683Z,5.57
2023-02-06T20:06:29.476Z,5.50
2023-02-06T20:08:57.228Z,4.40
2023-02-06T20:11:23.987Z,4.72
2023-02-06T20:13:55.606Z,5.05
2023-02-06T20:16:25.732Z,5.38
2023-02-06T20:18:53.876Z,5.10
2023-02-06T20:21:23.672Z,7.28
2023-02-06T20:23:50.813Z,6.25
2023-02-06T20:26:19.746Z,7.03
2023-02-06T20:28:47.325Z,5.95
2023-02-06T20:31:16.225Z,6.00
2023-02-06T20:33:43.487Z,8.85
2023-02-06T20:36:14.765Z,7.07
2023-02-06T20:38:42.203Z,6.93
2023-02-06T20:41:10.079Z,7.25
2023-02-06T20:43:37.226Z,7.38
2023-02-06T20:46:06.516Z,7.80
2023-02-06T20:48:36.377Z,8.15
2023-02-06T20:51:05.919Z,10.45
2023-02-06T20:53:32.637Z,11.38
2023-02-06T20:55:59.384Z,10.68
2023-02-06T20:58:26.124Z,11.82
2023-02-06T21:00:53.718Z,15.10
2023-02-06T21:03:20.638Z,17.35
2023-02-06T21:05:57.685Z,21.67
2023-02-06T21:08:25.617Z,22.33
2023-02-06T21:10:53.200Z,24.15
2023-02-06T21:13:20.015Z,25.52
2023-02-06T21:15:52.606Z,24.75
2023-02-06T21:18:20.632Z,24.70
2023-02-06T21:20:47.412Z,23.98
2023-02-06T21:23:14.295Z,21.55
2023-02-06T21:25:41.754Z,23.42
2023-02-06T21:28:09.602Z,22.20
2023-02-06T21:30:36.774Z,22.15
2023-02-06T21:33:03.699Z,20.48
2023-02-06T21:35:32.793Z,17.42
2023-02-06T21:37:59.898Z,17.65
2023-02-06T21:40:26.545Z,20.70
2023-02-06T21:42:53.158Z,18.15
2023-02-06T21:45:19.898Z,18.08
2023-02-06T21:47:48.341Z,20.67
2023-02-06T21:50:15.137Z,20.23
2023-02-06T21:52:42.389Z,18.95
2023-02-06T21:55:09.114Z,18.73
2023-02-06T21:57:35.764Z,18.58
2023-02-06T22:00:02.406Z,17.35
2023-02-06T22:02:29.119Z,18.73
2023-02-06T22:04:55.772Z,20.20
2023-02-06T22:07:22.418Z,18.25
2023-02-06T22:09:49.092Z,17.40
2023-02-06T22:12:15.696Z,18.10
2023-02-06T22:14:42.306Z,20.33
2023-02-06T22:17:09.001Z,19.63
2023-02-06T22:19:37.723Z,21.25
2023-02-06T22:22:04.450Z,23.08
2023-02-06T22:24:31.196Z,23.05
2023-02-06T22:26:57.804Z,23.45
2023-02-06T22:29:24.604Z,24.08
2023-02-06T22:31:51.347Z,24.00
2023-02-06T22:34:20.998Z,21.85
2023-02-06T22:36:50.604Z,20.02
2023-02-06T22:39:17.832Z,19.25
2023-02-06T22:41:45.856Z,23.90
2023-02-06T22:44:16.717Z,22.00
2023-02-06T22:46:50.108Z,22.08
2023-02-06T22:49:17.492Z,21.45
2023-02-06T22:51:44.754Z,19.73
2023-02-06T22:54:12.672Z,19.38
2023-02-06T22:56:41.170Z,18.30
2023-02-06T22:59:37.206Z,19.10
2023-02-06T23:02:04.354Z,19.65
2023-02-06T23:04:36.196Z,20.08
2023-02-06T23:07:02.963Z,20.60
2023-02-06T23:09:35.282Z,21.63
2023-02-06T23:12:03.044Z,21.33
2023-02-06T23:14:32.093Z,22.92
2023-02-06T23:17:02.412Z,21.13
2023-02-06T23:19:29.568Z,22.15
2023-02-06T23:21:56.287Z,21.02
2023-02-06T23:24:23.042Z,21.38
2023-02-06T23:26:51.009Z,19.92
2023-02-06T23:29:21.540Z,21.23
2023-02-06T23:31:49.132Z,22.83
2023-02-06T23:34:17.635Z,21.20
2023-02-06T23:36:45.154Z,23.03
2023-02-06T23:39:12.053Z,22.00
2023-02-06T23:41:38.883Z,22.30
2023-02-06T23:44:08.119Z,22.77
2023-02-06T23:46:36.735Z,24.00
2023-02-06T23:49:04.331Z,21.55
2023-02-06T23:51:31.989Z,22.98
2023-02-06T23:53:59.287Z,23.80
2023-02-06T23:56:28.545Z,21.85
2023-02-06T23:58:57.333Z,21.25
